sensor_id;sensor_type;location;lat;lon;timestamp;pressure;altitude;pressure_sealevel;temperature;humidity
77311;BME280;66371;52.714;5.074;2023-09-19T00:00:59;100617.63;;;13.45;100.00
77311;BME280;66371;52.714;5.074;2023-09-19T00:03:24;100620.31;;;13.45;100.00
77311;BME280;66371;52.714;5.074;2023-09-19T00:05:53;100646.06;;;13.54;100.00
77311;BME280;66371;52.714;5.074;2023-09-19T00:08:20;100648.75;;;13.54;100.00
77311;BME280;66371;52.714;5.074;2023-09-19T00:10:50;100643.44;;;13.46;100.00
77311;BME280;66371;52.714;5.074;2023-09-19T00:13:15;100650.03;;;13.44;100.00
77311;BME280;66371;52.714;5.074;2023-09-19T00:15:46;100643.16;;;13.41;100.00
77311;BME280;66371;52.714;5.074;2023-09-19T00:18:15;100649.66;;;13.47;100.00
77311;BME280;66371;52.714;5.074;2023-09-19T00:20:46;100659.84;;;13.51;100.00
77311;BME280;66371;52.714;5.074;2023-09-19T00:23:13;100658.47;;;13.55;100.00
77311;BME280;66371;52.714;5.074;2023-09-19T00:25:39;100657.16;;;13.51;100.00
77311;BME280;66371;52.714;5.074;2023-09-19T00:28:05;100664.56;;;13.49;100.00
77311;BME280;66371;52.714;5.074;2023-09-19T00:30:33;100664.69;;;13.56;100.00
77311;BME280;66371;52.714;5.074;2023-09-19T00:32:58;100670.78;;;13.64;100.00
77311;BME280;66371;52.714;5.074;2023-09-19T00:35:24;100665.41;;;13.64;100.00
77311;BME280;66371;52.714;5.074;2023-09-19T00:37:50;100668.56;;;13.68;100.00
77311;BME280;66371;52.714;5.074;2023-09-19T00:40:16;100658.19;;;13.65;100.00
77311;BME280;66371;52.714;5.074;2023-09-19T00:42:45;100672.25;;;13.67;100.00
77311;BME280;66371;52.714;5.074;2023-09-19T00:45:13;100668.94;;;13.79;100.00
77311;BME280;66371;52.714;5.074;2023-09-19T00:47:44;100669.13;;;13.78;100.00
77311;BME280;66371;52.714;5.074;2023-09-19T00:50:11;100659.22;;;13.78;100.00
77311;BME280;66371;52.714;5.074;2023-09-19T00:52:40;100680.34;;;13.81;100.00
77311;BME280;66371;52.714;5.074;2023-09-19T00:55:11;100673.47;;;13.79;100.00
77311;BME280;66371;52.714;5.074;2023-09-19T00:57:39;100651.13;;;13.64;100.00
77311;BME280;66371;52.714;5.074;2023-09-19T01:00:07;100671.44;;;13.66;100.00
77311;BME280;66371;52.714;5.074;2023-09-19T01:05:04;100683.78;;;13.75;100.00
77311;BME280;66371;52.714;5.074;2023-09-19T01:07:32;100681.91;;;13.76;100.00
77311;BME280;66371;52.714;5.074;2023-09-19T01:10:04;100700.88;;;13.74;100.00
77311;BME280;66371;52.714;5.074;2023-09-19T01:15:40;100694.06;;;13.86;100.00
77311;BME280;66371;52.714;5.074;2023-09-19T01:18:35;100683.69;;;13.83;100.00
77311;BME280;66371;52.714;5.074;2023-09-19T01:21:47;100687.38;;;13.82;100.00
77311;BME280;66371;52.714;5.074;2023-09-19T01:30:06;100689.41;;;13.80;100.00
77311;BME280;66371;52.714;5.074;2023-09-19T01:32:33;100687.94;;;13.78;100.00
77311;BME280;66371;52.714;5.074;2023-09-19T01:34:58;100681.72;;;13.77;100.00
77311;BME280;66371;52.714;5.074;2023-09-19T01:37:30;100690.72;;;13.84;100.00
77311;BME280;66371;52.714;5.074;2023-09-19T01:40:05;100690.16;;;13.89;100.00
77311;BME280;66371;52.714;5.074;2023-09-19T01:43:12;100691.66;;;13.91;100.00
77311;BME280;66371;52.714;5.074;2023-09-19T01:48:41;100693.16;;;13.94;100.00
77311;BME280;66371;52.714;5.074;2023-09-19T01:51:15;100685.72;;;13.96;100.00
77311;BME280;66371;52.714;5.074;2023-09-19T01:54:08;100691.03;;;13.89;100.00
77311;BME280;66371;52.714;5.074;2023-09-19T01:56:48;100693.69;;;13.89;100.00
77311;BME280;66371;52.714;5.074;2023-09-19T01:59:25;100698.69;;;14.07;100.00
77311;BME280;66371;52.714;5.074;2023-09-19T02:01:53;100690.97;;;14.18;100.00
77311;BME280;66371;52.714;5.074;2023-09-19T02:04:19;100694.44;;;14.27;100.00
77311;BME280;66371;52.714;5.074;2023-09-19T02:06:45;100707.44;;;14.38;100.00
77311;BME280;66371;52.714;5.074;2023-09-19T02:09:14;100699.22;;;14.46;100.00
77311;BME280;66371;52.714;5.074;2023-09-19T02:11:42;100694.41;;;14.42;100.00
77311;BME280;66371;52.714;5.074;2023-09-19T02:14:08;100699.25;;;14.32;100.00
77311;BME280;66371;52.714;5.074;2023-09-19T02:16:34;100700.00;;;14.26;100.00
77311;BME280;66371;52.714;5.074;2023-09-19T02:19:00;100691.53;;;14.14;100.00
77311;BME280;66371;52.714;5.074;2023-09-19T02:21:25;100684.13;;;14.16;100.00
77311;BME280;66371;52.714;5.074;2023-09-19T02:23:55;100685.97;;;14.15;100.00
77311;BME280;66371;52.714;5.074;2023-09-19T02:26:23;100698.13;;;14.11;100.00
77311;BME280;66371;52.714;5.074;2023-09-19T02:28:49;100703.03;;;14.08;100.00
77311;BME280;66371;52.714;5.074;2023-09-19T02:35:09;100712.97;;;14.07;100.00
77311;BME280;66371;52.714;5.074;2023-09-19T02:37:36;100711.56;;;14.11;100.00
77311;BME280;66371;52.714;5.074;2023-09-19T02:40:02;100710.16;;;14.15;100.00
77311;BME280;66371;52.714;5.074;2023-09-19T02:42:28;100702.53;;;14.27;100.00
77311;BME280;66371;52.714;5.074;2023-09-19T02:44:54;100706.25;;;14.26;100.00
77311;BME280;66371;52.714;5.074;2023-09-19T02:47:19;100701.66;;;14.27;100.00
77311;BME280;66371;52.714;5.074;2023-09-19T02:49:54;100706.25;;;14.26;100.00
77311;BME280;66371;52.714;5.074;2023-09-19T02:52:30;100696.47;;;14.25;100.00
77311;BME280;66371;52.714;5.074;2023-09-19T02:54:56;100692.66;;;14.20;100.00
77311;BME280;66371;52.714;5.074;2023-09-19T02:57:23;100680.78;;;14.14;100.00
77311;BME280;66371;52.714;5.074;2023-09-19T02:59:49;100678.28;;;14.12;100.00
77311;BME280;66371;52.714;5.074;2023-09-19T03:02:18;100677.66;;;14.10;100.00
77311;BME280;66371;52.714;5.074;2023-09-19T03:04:44;100689.03;;;14.12;100.00
77311;BME280;66371;52.714;5.074;2023-09-19T03:07:20;100694.78;;;14.09;100.00
77311;BME280;66371;52.714;5.074;2023-09-19T03:09:46;100713.16;;;14.06;100.00
77311;BME280;66371;52.714;5.074;2023-09-19T03:12:12;100711.28;;;14.06;100.00
77311;BME280;66371;52.714;5.074;2023-09-19T03:14:41;100703.41;;;14.05;100.00
77311;BME280;66371;52.714;5.074;2023-09-19T03:17:06;100707.50;;;14.01;100.00
77311;BME280;66371;52.714;5.074;2023-09-19T03:19:45;100706.03;;;13.98;100.00
77311;BME280;66371;52.714;5.074;2023-09-19T03:22:14;100709.91;;;13.96;100.00
77311;BME280;66371;52.714;5.074;2023-09-19T03:24:43;100716.50;;;13.93;100.00
77311;BME280;66371;52.714;5.074;2023-09-19T03:27:15;100707.41;;;13.94;100.00
77311;BME280;66371;52.714;5.074;2023-09-19T03:29:42;100688.97;;;13.91;100.00
77311;BME280;66371;52.714;5.074;2023-09-19T03:32:08;100693.16;;;13.94;100.00
77311;BME280;66371;52.714;5.074;2023-09-19T03:34:38;100692.84;;;13.89;100.00
77311;BME280;66371;52.714;5.074;2023-09-19T03:37:11;100705.75;;;13.93;100.00
77311;BME280;66371;52.714;5.074;2023-09-19T03:39:37;100717.16;;;13.95;100.00
77311;BME280;66371;52.714;5.074;2023-09-19T03:42:08;100722.72;;;13.94;100.00
77311;BME280;66371;52.714;5.074;2023-09-19T03:47:34;100722.91;;;13.92;100.00
77311;BME280;66371;52.714;5.074;2023-09-19T03:50:05;100725.59;;;13.92;100.00
77311;BME280;66371;52.714;5.074;2023-09-19T03:52:32;100724.56;;;13.93;100.00
77311;BME280;66371;52.714;5.074;2023-09-19T03:54:57;100728.16;;;13.86;100.00
77311;BME280;66371;52.714;5.074;2023-09-19T03:57:22;100736.13;;;13.79;100.00
77311;BME280;66371;52.714;5.074;2023-09-19T03:59:53;100734.47;;;13.78;100.00
77311;BME280;66371;52.714;5.074;2023-09-19T04:02:21;100730.75;;;13.79;100.00
77311;BME280;66371;52.714;5.074;2023-09-19T04:04:53;100726.50;;;13.85;100.00
77311;BME280;66371;52.714;5.074;2023-09-19T04:07:21;100738.06;;;13.85;100.00
77311;BME280;66371;52.714;5.074;2023-09-19T04:09:48;100736.69;;;13.89;100.00
77311;BME280;66371;52.714;5.074;2023-09-19T04:12:27;100739.56;;;13.88;100.00
77311;BME280;66371;52.714;5.074;2023-09-19T04:15:17;100754.78;;;13.95;100.00
77311;BME280;66371;52.714;5.074;2023-09-19T04:17:51;100752.09;;;13.95;100.00
77311;BME280;66371;52.714;5.074;2023-09-19T04:20:18;100736.81;;;14.10;100.00
77311;BME280;66371;52.714;5.074;2023-09-19T04:22:56;100744.50;;;14.13;100.00
77311;BME280;66371;52.714;5.074;2023-09-19T04:25:22;100752.00;;;14.18;100.00
77311;BME280;66371;52.714;5.074;2023-09-19T04:27:53;100747.81;;;14.15;100.00
77311;BME280;66371;52.714;5.074;2023-09-19T04:30:20;100751.06;;;14.11;100.00
77311;BME280;66371;52.714;5.074;2023-09-19T04:32:51;100751.06;;;14.11;100.00
77311;BME280;66371;52.714;5.074;2023-09-19T04:35:23;100749.78;;;14.07;100.00
77311;BME280;66371;52.714;5.074;2023-09-19T04:37:50;100743.91;;;14.03;100.00
77311;BME280;66371;52.714;5.074;2023-09-19T04:40:18;100754.97;;;14.08;100.00
77311;BME280;66371;52.714;5.074;2023-09-19T04:42:44;100751.53;;;14.14;100.00
77311;BME280;66371;52.714;5.074;2023-09-19T04:45:19;100748.19;;;14.12;100.00
77311;BME280;66371;52.714;5.074;2023-09-19T04:48:10;100751.44;;;14.08;100.00
77311;BME280;66371;52.714;5.074;2023-09-19T04:50:37;100741.88;;;14.05;100.00
77311;BME280;66371;52.714;5.074;2023-09-19T04:53:04;100739.84;;;14.07;100.00
77311;BME280;66371;52.714;5.074;2023-09-19T04:55:31;100747.75;;;14.09;100.00
77311;BME280;66371;52.714;5.074;2023-09-19T04:57:58;100758.03;;;14.05;100.00
77311;BME280;66371;52.714;5.074;2023-09-19T05:00:43;100755.63;;;14.10;100.00
77311;BME280;66371;52.714;5.074;2023-09-19T05:03:11;100761.72;;;14.04;100.00
77311;BME280;66371;52.714;5.074;2023-09-19T05:05:39;100757.91;;;13.99;100.00
77311;BME280;66371;52.714;5.074;2023-09-19T05:08:07;100749.28;;;14.03;100.00
77311;BME280;66371;52.714;5.074;2023-09-19T05:10:35;100753.38;;;13.99;100.00
77311;BME280;66371;52.714;5.074;2023-09-19T05:13:05;100762.47;;;13.98;100.00
77311;BME280;66371;52.714;5.074;2023-09-19T05:15:37;100751.72;;;13.98;100.00
77311;BME280;66371;52.714;5.074;2023-09-19T05:18:03;100746.97;;;14.00;100.00
77311;BME280;66371;52.714;5.074;2023-09-19T05:20:31;100752.16;;;14.02;100.00
77311;BME280;66371;52.714;5.074;2023-09-19T05:23:02;100756.63;;;13.95;100.00
77311;BME280;66371;52.714;5.074;2023-09-19T05:25:35;100739.56;;;13.88;100.00
77311;BME280;66371;52.714;5.074;2023-09-19T05:28:10;100752.53;;;13.99;100.00
77311;BME280;66371;52.714;5.074;2023-09-19T05:30:47;100764.78;;;14.01;100.00
77311;BME280;66371;52.714;5.074;2023-09-19T05:33:21;100756.72;;;14.01;100.00
77311;BME280;66371;52.714;5.074;2023-09-19T05:35:58;100767.19;;;14.11;100.00
77311;BME280;66371;52.714;5.074;2023-09-19T05:38:33;100773.41;;;14.11;100.00
77311;BME280;66371;52.714;5.074;2023-09-19T05:41:14;100769.50;;;14.14;100.00
77311;BME280;66371;52.714;5.074;2023-09-19T05:43:52;100774.81;;;14.22;100.00
77311;BME280;66371;52.714;5.074;2023-09-19T05:46:23;100773.66;;;14.25;100.00
77311;BME280;66371;52.714;5.074;2023-09-19T05:48:56;100774.94;;;14.29;100.00
77311;BME280;66371;52.714;5.074;2023-09-19T05:51:22;100781.69;;;14.39;100.00
77311;BME280;66371;52.714;5.074;2023-09-19T05:53:49;100774.34;;;14.48;100.00
77311;BME280;66371;52.714;5.074;2023-09-19T05:56:15;100778.06;;;14.47;100.00
77311;BME280;66371;52.714;5.074;2023-09-19T05:58:40;100776.84;;;14.49;100.00
77311;BME280;66371;52.714;5.074;2023-09-19T06:01:10;100777.22;;;14.46;100.00
77311;BME280;66371;52.714;5.074;2023-09-19T06:03:35;100775.75;;;14.44;100.00
77311;BME280;66371;52.714;5.074;2023-09-19T06:06:02;100767.50;;;14.45;100.00
77311;BME280;66371;52.714;5.074;2023-09-19T06:08:27;100778.16;;;14.39;100.00
77311;BME280;66371;52.714;5.074;2023-09-19T06:10:55;100772.53;;;14.34;100.00
77311;BME280;66371;52.714;5.074;2023-09-19T06:13:22;100769.28;;;14.38;100.00
77311;BME280;66371;52.714;5.074;2023-09-19T06:15:52;100772.16;;;14.37;100.00
77311;BME280;66371;52.714;5.074;2023-09-19T06:18:17;100775.84;;;14.36;100.00
77311;BME280;66371;52.714;5.074;2023-09-19T06:20:48;100775.41;;;14.32;100.00
77311;BME280;66371;52.714;5.074;2023-09-19T06:23:16;100773.16;;;14.36;100.00
77311;BME280;66371;52.714;5.074;2023-09-19T06:25:49;100765.00;;;14.44;100.00
77311;BME280;66371;52.714;5.074;2023-09-19T06:28:16;100766.66;;;14.59;100.00
77311;BME280;66371;52.714;5.074;2023-09-19T06:30:52;100773.94;;;14.80;100.00
77311;BME280;66371;52.714;5.074;2023-09-19T06:33:26;100771.41;;;14.93;100.00
77311;BME280;66371;52.714;5.074;2023-09-19T06:35:56;100770.38;;;14.94;100.00
77311;BME280;66371;52.714;5.074;2023-09-19T06:38:26;100765.84;;;14.94;100.00
77311;BME280;66371;52.714;5.074;2023-09-19T06:40:52;100778.19;;;14.89;100.00
77311;BME280;66371;52.714;5.074;2023-09-19T06:43:25;100772.81;;;14.89;100.00
77311;BME280;66371;52.714;5.074;2023-09-19T06:46:02;100770.13;;;14.89;100.00
77311;BME280;66371;52.714;5.074;2023-09-19T06:48:28;100770.00;;;14.97;100.00
77311;BME280;66371;52.714;5.074;2023-09-19T06:50:55;100776.66;;;15.01;100.00
77311;BME280;66371;52.714;5.074;2023-09-19T06:53:24;100785.59;;;15.01;100.00
77311;BME280;66371;52.714;5.074;2023-09-19T06:55:50;100790.22;;;15.07;100.00
77311;BME280;66371;52.714;5.074;2023-09-19T06:58:20;100789.25;;;15.15;100.00
77311;BME280;66371;52.714;5.074;2023-09-19T07:00:45;100793.97;;;15.27;100.00
77311;BME280;66371;52.714;5.074;2023-09-19T07:03:17;100798.56;;;15.48;100.00
77311;BME280;66371;52.714;5.074;2023-09-19T07:05:49;100796.63;;;15.63;100.00
77311;BME280;66371;52.714;5.074;2023-09-19T07:08:15;100798.56;;;15.69;100.00
77311;BME280;66371;52.714;5.074;2023-09-19T07:10:50;100793.56;;;15.72;100.00
77311;BME280;66371;52.714;5.074;2023-09-19T07:13:23;100797.38;;;15.78;100.00
77311;BME280;66371;52.714;5.074;2023-09-19T07:15:53;100797.38;;;15.78;100.00
77311;BME280;66371;52.714;5.074;2023-09-19T07:18:27;100795.56;;;15.85;100.00
77311;BME280;66371;52.714;5.074;2023-09-19T07:21:00;100803.25;;;15.88;100.00
77311;BME280;66371;52.714;5.074;2023-09-19T07:23:35;100798.50;;;15.90;100.00
77311;BME280;66371;52.714;5.074;2023-09-19T07:26:01;100796.84;;;15.89;100.00
77311;BME280;66371;52.714;5.074;2023-09-19T07:28:31;100802.88;;;15.91;100.00
77311;BME280;66371;52.714;5.074;2023-09-19T07:31:02;100811.78;;;15.92;100.00
77311;BME280;66371;52.714;5.074;2023-09-19T07:33:28;100804.97;;;15.96;100.00
77311;BME280;66371;52.714;5.074;2023-09-19T07:35:54;100805.03;;;16.02;100.00
77311;BME280;66371;52.714;5.074;2023-09-19T07:38:20;100814.59;;;16.05;100.00
77311;BME280;66371;52.714;5.074;2023-09-19T07:40:49;100813.00;;;16.17;100.00
77311;BME280;66371;52.714;5.074;2023-09-19T07:43:17;100804.78;;;16.25;100.00
77311;BME280;66371;52.714;5.074;2023-09-19T07:45:43;100802.13;;;16.31;100.00
77311;BME280;66371;52.714;5.074;2023-09-19T07:48:10;100799.03;;;16.34;100.00
77311;BME280;66371;52.714;5.074;2023-09-19T07:50:42;100795.53;;;16.40;100.00
77311;BME280;66371;52.714;5.074;2023-09-19T07:53:12;100798.72;;;16.44;100.00
77311;BME280;66371;52.714;5.074;2023-09-19T07:55:41;100796.03;;;16.44;100.00
77311;BME280;66371;52.714;5.074;2023-09-19T07:58:16;100798.53;;;16.52;100.00
77311;BME280;66371;52.714;5.074;2023-09-19T08:00:48;100795.03;;;16.58;100.00
77311;BME280;66371;52.714;5.074;2023-09-19T08:03:14;100787.63;;;16.66;100.00
77311;BME280;66371;52.714;5.074;2023-09-19T08:05:41;100785.38;;;16.76;100.00
77311;BME280;66371;52.714;5.074;2023-09-19T08:08:09;100778.16;;;16.90;100.00
77311;BME280;66371;52.714;5.074;2023-09-19T08:10:40;100774.00;;;16.87;100.00
77311;BME280;66371;52.714;5.074;2023-09-19T08:13:15;100776.91;;;16.86;100.00
77311;BME280;66371;52.714;5.074;2023-09-19T08:15:44;100774.84;;;16.94;100.00
77311;BME280;66371;52.714;5.074;2023-09-19T08:18:09;100778.16;;;16.90;100.00
77311;BME280;66371;52.714;5.074;2023-09-19T08:20:38;100766.97;;;16.99;100.00
77311;BME280;66371;52.714;5.074;2023-09-19T08:23:04;100774.47;;;17.04;100.00
77311;BME280;66371;52.714;5.074;2023-09-19T08:25:35;100765.34;;;17.11;100.00
77311;BME280;66371;52.714;5.074;2023-09-19T08:28:05;100775.75;;;17.21;100.00
77311;BME280;66371;52.714;5.074;2023-09-19T08:30:33;100767.03;;;17.25;100.00
77311;BME280;66371;52.714;5.074;2023-09-19T08:33:03;100768.72;;;17.33;100.00
77311;BME280;66371;52.714;5.074;2023-09-19T08:35:35;100774.31;;;17.31;100.00
77311;BME280;66371;52.714;5.074;2023-09-19T08:38:05;100768.50;;;17.34;100.00
77311;BME280;66371;52.714;5.074;2023-09-19T08:40:40;100761.22;;;17.15;100.00
77311;BME280;66371;52.714;5.074;2023-09-19T08:43:08;100759.72;;;17.06;100.00
77311;BME280;66371;52.714;5.074;2023-09-19T08:45:34;100759.31;;;17.09;100.00
77311;BME280;66371;52.714;5.074;2023-09-19T08:50:30;100756.44;;;17.37;100.00
77311;BME280;66371;52.714;5.074;2023-09-19T08:53:06;100759.00;;;17.52;100.00
77311;BME280;66371;52.714;5.074;2023-09-19T08:55:37;100768.38;;;17.62;100.00
77311;BME280;66371;52.714;5.074;2023-09-19T08:58:19;100760.25;;;17.56;100.00
77311;BME280;66371;52.714;5.074;2023-09-19T09:00:48;100758.81;;;17.60;100.00
77311;BME280;66371;52.714;5.074;2023-09-19T09:03:20;100768.16;;;17.64;100.00
77311;BME280;66371;52.714;5.074;2023-09-19T09:05:47;100772.31;;;17.73;100.00
77311;BME280;66371;52.714;5.074;2023-09-19T09:08:20;100762.56;;;17.72;100.00
77311;BME280;66371;52.714;5.074;2023-09-19T09:10:49;100759.41;;;17.62;100.00
77311;BME280;66371;52.714;5.074;2023-09-19T09:13:23;100768.38;;;17.49;100.00
77311;BME280;66371;52.714;5.074;2023-09-19T09:15:53;100772.72;;;17.43;100.00
77311;BME280;66371;52.714;5.074;2023-09-19T09:18:28;100769.56;;;17.40;100.00
77311;BME280;66371;52.714;5.074;2023-09-19T09:20:57;100766.22;;;17.38;100.00
77311;BME280;66371;52.714;5.074;2023-09-19T09:23:29;100763.97;;;17.48;100.00
77311;BME280;66371;52.714;5.074;2023-09-19T09:26:01;100757.53;;;17.56;100.00
77311;BME280;66371;52.714;5.074;2023-09-19T09:28:34;100765.03;;;17.67;100.00
77311;BME280;66371;52.714;5.074;2023-09-19T09:31:01;100758.78;;;17.66;100.00
77311;BME280;66371;52.714;5.074;2023-09-19T09:33:33;100760.88;;;17.64;100.00
77311;BME280;66371;52.714;5.074;2023-09-19T09:36:01;100750.28;;;17.56;100.00
77311;BME280;66371;52.714;5.074;2023-09-19T09:38:46;100738.00;;;17.54;100.00
77311;BME280;66371;52.714;5.074;2023-09-19T09:41:21;100736.34;;;17.59;100.00
77311;BME280;66371;52.714;5.074;2023-09-19T09:44:17;100739.25;;;17.58;100.00
77311;BME280;66371;52.714;5.074;2023-09-19T09:46:50;100759.34;;;17.35;100.00
77311;BME280;66371;52.714;5.074;2023-09-19T09:49:30;100764.88;;;16.95;100.00
77311;BME280;66371;52.714;5.074;2023-09-19T09:52:06;100757.97;;;16.79;100.00
77311;BME280;66371;52.714;5.074;2023-09-19T09:55:03;100744.09;;;16.89;100.00
77311;BME280;66371;52.714;5.074;2023-09-19T09:58:19;100741.25;;;17.16;100.00
77311;BME280;66371;52.714;5.074;2023-09-19T10:00:56;100740.63;;;17.21;100.00
77311;BME280;66371;52.714;5.074;2023-09-19T10:03:42;100744.19;;;17.34;100.00
77311;BME280;66371;52.714;5.074;2023-09-19T10:06:21;100721.94;;;17.32;100.00
77311;BME280;66371;52.714;5.074;2023-09-19T10:09:08;100709.03;;;17.28;100.00
77311;BME280;66371;52.714;5.074;2023-09-19T10:12:03;100732.31;;;17.09;100.00
77311;BME280;66371;52.714;5.074;2023-09-19T10:14:38;100732.38;;;16.69;100.00
77311;BME280;66371;52.714;5.074;2023-09-19T10:17:09;100737.50;;;16.51;100.00
77311;BME280;66371;52.714;5.074;2023-09-19T10:19:55;100719.16;;;16.40;100.00
77311;BME280;66371;52.714;5.074;2023-09-19T10:22:24;100723.97;;;16.44;100.00
77311;BME280;66371;52.714;5.074;2023-09-19T10:24:59;100715.75;;;16.59;100.00
77311;BME280;66371;52.714;5.074;2023-09-19T10:27:29;100704.19;;;16.84;100.00
77311;BME280;66371;52.714;5.074;2023-09-19T10:29:56;100697.13;;;16.90;100.00
77311;BME280;66371;52.714;5.074;2023-09-19T10:32:25;100698.84;;;17.04;100.00
77311;BME280;66371;52.714;5.074;2023-09-19T10:34:55;100702.59;;;17.09;100.00
77311;BME280;66371;52.714;5.074;2023-09-19T10:37:24;100695.13;;;17.24;100.00
77311;BME280;66371;52.714;5.074;2023-09-19T10:39:53;100686.19;;;17.37;100.00
77311;BME280;66371;52.714;5.074;2023-09-19T10:42:25;100689.72;;;17.37;100.00
77311;BME280;66371;52.714;5.074;2023-09-19T10:45:08;100683.25;;;17.19;100.00
77311;BME280;66371;52.714;5.074;2023-09-19T10:47:45;100675.59;;;17.09;100.00
77311;BME280;66371;52.714;5.074;2023-09-19T10:50:21;100675.19;;;17.12;100.00
77311;BME280;66371;52.714;5.074;2023-09-19T10:52:55;100677.25;;;17.17;100.00
77311;BME280;66371;52.714;5.074;2023-09-19T10:55:30;100672.03;;;17.09;100.00
77311;BME280;66371;52.714;5.074;2023-09-19T10:58:03;100680.75;;;16.98;100.00
77311;BME280;66371;52.714;5.074;2023-09-19T11:00:59;100692.75;;;16.82;100.00
77311;BME280;66371;52.714;5.074;2023-09-19T11:03:33;100684.16;;;16.53;100.00
77311;BME280;66371;52.714;5.074;2023-09-19T11:06:19;100698.69;;;16.45;100.00
77311;BME280;66371;52.714;5.074;2023-09-19T11:09:02;100708.75;;;16.37;100.00
77311;BME280;66371;52.714;5.074;2023-09-19T11:11:45;100698.16;;;16.29;100.00
77311;BME280;66371;52.714;5.074;2023-09-19T11:25:49;100704.31;;;16.16;100.00
77311;BME280;66371;52.714;5.074;2023-09-19T11:30:54;100701.47;;;16.31;100.00
77311;BME280;66371;52.714;5.074;2023-09-19T11:33:28;100689.56;;;16.53;100.00
77311;BME280;66371;52.714;5.074;2023-09-19T11:43:48;100657.09;;;17.19;100.00
77311;BME280;66371;52.714;5.074;2023-09-19T11:47:13;100654.78;;;17.29;100.00
77311;BME280;66371;52.714;5.074;2023-09-19T11:49:32;100650.66;;;17.27;100.00
77311;BME280;66371;52.714;5.074;2023-09-19T11:52:03;100647.72;;;17.22;100.00
77311;BME280;66371;52.714;5.074;2023-09-19T11:54:42;100646.47;;;17.11;100.00
77311;BME280;66371;52.714;5.074;2023-09-19T11:57:24;100673.03;;;16.88;100.00
77311;BME280;66371;52.714;5.074;2023-09-19T11:59:53;100667.22;;;16.78;100.00
77311;BME280;66371;52.714;5.074;2023-09-19T12:02:39;100662.44;;;16.74;100.00
77311;BME280;66371;52.714;5.074;2023-09-19T12:05:06;100668.66;;;16.74;100.00
77311;BME280;66371;52.714;5.074;2023-09-19T12:07:43;100676.34;;;16.71;100.00
77311;BME280;66371;52.714;5.074;2023-09-19T12:10:13;100667.38;;;16.57;100.00
77311;BME280;66371;52.714;5.074;2023-09-19T12:12:48;100687.06;;;16.51;100.00
77311;BME280;66371;52.714;5.074;2023-09-19T12:15:28;100684.47;;;16.37;100.00
77311;BME280;66371;52.714;5.074;2023-09-19T12:18:03;100680.31;;;16.34;100.00
77311;BME280;66371;52.714;5.074;2023-09-19T12:20:45;100672.06;;;16.42;100.00
77311;BME280;66371;52.714;5.074;2023-09-19T12:23:16;100668.16;;;16.45;100.00
77311;BME280;66371;52.714;5.074;2023-09-19T12:25:46;100664.88;;;16.56;100.00
77311;BME280;66371;52.714;5.074;2023-09-19T12:28:27;100658.47;;;16.70;100.00
77311;BME280;66371;52.714;5.074;2023-09-19T12:31:14;100665.97;;;16.81;100.00
77311;BME280;66371;52.714;5.074;2023-09-19T12:33:57;100649.16;;;16.85;100.00
77311;BME280;66371;52.714;5.074;2023-09-19T12:36:30;100647.28;;;16.86;100.00
77311;BME280;66371;52.714;5.074;2023-09-19T12:39:04;100644.22;;;17.02;100.00
77311;BME280;66371;52.714;5.074;2023-09-19T12:41:37;100655.03;;;17.21;100.00
77311;BME280;66371;52.714;5.074;2023-09-19T12:44:08;100643.19;;;17.29;100.00
77311;BME280;66371;52.714;5.074;2023-09-19T12:46:52;100640.25;;;17.30;100.00
77311;BME280;66371;52.714;5.074;2023-09-19T12:49:24;100643.59;;;17.26;100.00
77311;BME280;66371;52.714;5.074;2023-09-19T12:52:06;100640.03;;;17.25;100.00
77311;BME280;66371;52.714;5.074;2023-09-19T12:54:43;100638.38;;;17.18;100.00
77311;BME280;66371;52.714;5.074;2023-09-19T12:57:26;100641.91;;;17.31;100.00
77311;BME280;66371;52.714;5.074;2023-09-19T12:59:58;100645.47;;;17.38;100.00
77311;BME280;66371;52.714;5.074;2023-09-19T13:02:34;100627.78;;;17.42;100.00
77311;BME280;66371;52.714;5.074;2023-09-19T13:05:04;100630.06;;;17.39;100.00
77311;BME280;66371;52.714;5.074;2023-09-19T13:07:48;100631.53;;;17.41;100.00
77311;BME280;66371;52.714;5.074;2023-09-19T13:10:17;100624.47;;;17.47;100.00
77311;BME280;66371;52.714;5.074;2023-09-19T13:12:57;100613.84;;;17.59;100.00
77311;BME280;66371;52.714;5.074;2023-09-19T13:16:04;100629.47;;;17.57;100.00
77311;BME280;66371;52.714;5.074;2023-09-19T13:18:56;100627.41;;;17.45;100.00
77311;BME280;66371;52.714;5.074;2023-09-19T13:21:33;100634.88;;;17.30;100.00
77311;BME280;66371;52.714;5.074;2023-09-19T13:24:29;100639.03;;;17.20;100.00
77311;BME280;66371;52.714;5.074;2023-09-19T13:27:03;100634.25;;;17.15;100.00
77311;BME280;66371;52.714;5.074;2023-09-19T13:29:57;100632.34;;;17.22;100.00
77311;BME280;66371;52.714;5.074;2023-09-19T13:32:34;100634.03;;;17.30;100.00
77311;BME280;66371;52.714;5.074;2023-09-19T13:35:06;100637.75;;;17.42;100.00
77311;BME280;66371;52.714;5.074;2023-09-19T13:37:35;100633.00;;;17.51;100.00
77311;BME280;66371;52.714;5.074;2023-09-19T13:40:15;100621.97;;;17.59;100.00
77311;BME280;66371;52.714;5.074;2023-09-19T13:42:42;100622.78;;;17.66;100.00
77311;BME280;66371;52.714;5.074;2023-09-19T13:45:13;100625.47;;;17.72;100.00
77311;BME280;66371;52.714;5.074;2023-09-19T13:47:43;100627.94;;;17.74;100.00
77311;BME280;66371;52.714;5.074;2023-09-19T13:50:18;100622.16;;;17.70;100.00
77311;BME280;66371;52.714;5.074;2023-09-19T13:52:53;100614.25;;;17.69;100.00